Beauregard Regional Airport
KDRI : rendu visible

Aérodrome :











RETROUVEZ-NOUS SUR...

 
LOGIN :

S'inscrire | Disclaimer

   EN    FR    IT 

 









Légende :    VFR   VFR Marginal   IFR   IFR Intensif   IFR Très Intensif
Visi : 
Plafond : 
>= 8 km
>= 3000ft
5 à 8 km
1000 à 3000 ft
1500m à 5 km
500 à 1000 ft
800 à 1500m
200 à 500 ft
< 800m
< 200 ft
Symboles :   Orages  Brouillard  Fortes neiges  Fortes précipitations  Vent > 20 kt






- Altitude de l'aérodrome : 202 ft


KDRI - Beauregard Regional

DERNIER METAR :
  • 191235Z AUTO 00000KT 10SM CLR 12/12 A2983 RMK AO2 T01220115

METARs EXPIRÉS :
  • 191215Z AUTO 00000KT 10SM CLR 13/12 A2982 RMK AO2 T01250117
  • 191155Z AUTO 00000KT 10SM CLR 13/12 A2981 RMK AO2 T01250118 10138 20123
  • 191135Z AUTO 00000KT 10SM CLR 13/12 A2981 RMK AO2 T01250117
  • 191115Z AUTO 00000KT 10SM CLR 13/12 A2981 RMK AO2 T01270116
  • 191055Z AUTO 00000KT 10SM CLR 13/11 A2981 RMK AO2 T01310112
  • 191035Z AUTO 00000KT 10SM CLR 13/11 A2979 RMK AO2 T01310113
  • 191015Z AUTO 00000KT 10SM CLR 13/12 A2979 RMK AO2 T01300120
  • 190955Z AUTO 00000KT 10SM CLR 13/12 A2978 RMK AO2 T01330117

TAF N/A



MET'MAP, la Météo Aéronautique d'un coup d'oeil ! - Copyright ORBIFLY Décembre 2007 - Disclaimer

ORBIFLY MET'MAP TEAM :

Programmation & Développement : Alexandra Zaïnal
Conception & Développement : Baudouin d'Aumeries
Co-Programmation & Développement : Marc-Olivier Méhu
Soutien technique & logistique : Manuel Goepfert

Contact : metmap@orbifly.com




SOURCES & CREDITS :

   NOAA       Earth
Advisory